createdAt,value
2019-01-13T00:01:19.888Z,4.97
2019-01-13T00:03:51.595Z,5.13
2019-01-13T00:06:23.488Z,5.00
2019-01-13T00:08:55.799Z,4.83
2019-01-13T00:11:27.565Z,4.77
2019-01-13T00:13:59.267Z,5.00
2019-01-13T00:16:31.007Z,4.20
2019-01-13T00:19:02.731Z,4.40
2019-01-13T00:21:34.457Z,4.87
2019-01-13T00:24:06.323Z,4.70
2019-01-13T00:26:38.082Z,4.17
2019-01-13T00:29:09.731Z,4.40
2019-01-13T00:31:41.446Z,4.27
2019-01-13T00:34:13.184Z,4.13
2019-01-13T00:36:44.950Z,4.00
2019-01-13T00:39:16.599Z,3.90
2019-01-13T00:41:48.340Z,3.13
2019-01-13T00:44:20.043Z,3.07
2019-01-13T00:46:51.821Z,3.00
2019-01-13T00:49:23.582Z,2.70
2019-01-13T00:51:55.300Z,2.57
2019-01-13T00:54:26.986Z,2.40
2019-01-13T00:56:58.729Z,2.10
2019-01-13T00:59:30.536Z,2.50
2019-01-13T01:02:02.285Z,2.67
2019-01-13T01:04:34.050Z,2.40
2019-01-13T01:07:06.094Z,2.50
2019-01-13T01:09:37.834Z,2.33
2019-01-13T01:12:09.622Z,2.30
2019-01-13T01:14:41.312Z,1.73
2019-01-13T01:17:13.089Z,2.10
2019-01-13T01:19:44.790Z,2.00
2019-01-13T01:22:16.533Z,2.37
2019-01-13T01:24:48.249Z,2.20
2019-01-13T01:27:19.929Z,3.07
2019-01-13T01:29:51.730Z,2.03
2019-01-13T01:32:23.427Z,1.87
2019-01-13T01:34:55.140Z,2.07
2019-01-13T01:37:26.907Z,2.10
2019-01-13T01:39:58.683Z,1.93
2019-01-13T01:42:30.377Z,1.67
2019-01-13T01:45:02.149Z,1.90
2019-01-13T01:47:33.843Z,1.83
2019-01-13T01:50:07.198Z,2.40
2019-01-13T01:52:38.903Z,2.30
2019-01-13T01:55:13.151Z,1.67
2019-01-13T01:57:44.923Z,1.77
2019-01-13T02:00:19.522Z,1.80
2019-01-13T02:02:51.319Z,1.43
2019-01-13T02:05:23.024Z,1.87
2019-01-13T02:07:54.693Z,1.40
2019-01-13T02:10:26.449Z,1.60
2019-01-13T02:12:58.135Z,1.80
2019-01-13T02:15:29.828Z,1.90
2019-01-13T02:18:01.571Z,2.07
2019-01-13T02:20:33.428Z,2.20
2019-01-13T02:23:05.230Z,1.60
2019-01-13T02:25:37.902Z,1.80
2019-01-13T02:28:09.608Z,1.70
2019-01-13T02:30:48.803Z,1.27
2019-01-13T02:33:14.748Z,1.67
2019-01-13T02:35:46.438Z,1.50
2019-01-13T02:38:18.112Z,1.60
2019-01-13T02:40:49.903Z,1.80
2019-01-13T02:43:21.650Z,1.40
2019-01-13T02:45:53.342Z,2.17
2019-01-13T02:48:25.109Z,1.90
2019-01-13T02:50:56.873Z,2.03
2019-01-13T02:53:28.560Z,2.00
2019-01-13T02:56:00.313Z,2.27
2019-01-13T02:58:51.067Z,2.10
2019-01-13T03:01:22.845Z,2.43
2019-01-13T03:03:54.666Z,2.70
2019-01-13T03:06:26.469Z,2.10
2019-01-13T03:08:58.248Z,2.33
2019-01-13T03:11:30.002Z,1.70
2019-01-13T03:14:01.707Z,2.20
2019-01-13T03:16:33.448Z,1.70
2019-01-13T03:19:05.255Z,3.13
2019-01-13T03:21:37.093Z,1.57
2019-01-13T03:24:08.849Z,1.70
2019-01-13T03:26:40.540Z,1.53
2019-01-13T03:29:12.294Z,2.10
2019-01-13T03:31:43.959Z,1.77
2019-01-13T03:34:15.640Z,3.03
2019-01-13T03:36:47.476Z,1.73
2019-01-13T03:39:19.237Z,1.83
2019-01-13T03:41:51.013Z,1.60
2019-01-13T03:44:22.703Z,1.47
2019-01-13T03:46:54.484Z,1.70
2019-01-13T03:49:26.271Z,1.40
2019-01-13T03:51:58.030Z,1.93
2019-01-13T03:54:29.784Z,1.10
2019-01-13T03:57:01.564Z,1.23
2019-01-13T03:59:36.300Z,1.53
2019-01-13T04:02:08.070Z,1.50
2019-01-13T04:04:39.813Z,1.60
2019-01-13T04:07:11.619Z,1.97
2019-01-13T04:09:43.297Z,1.57
2019-01-13T04:12:14.963Z,1.00
2019-01-13T04:14:46.685Z,1.30
2019-01-13T04:17:19.625Z,1.10
2019-01-13T04:19:51.329Z,1.40
2019-01-13T04:22:23.060Z,1.00
2019-01-13T04:24:54.867Z,0.93
2019-01-13T04:27:26.571Z,1.47
2019-01-13T04:29:58.251Z,1.10
2019-01-13T04:32:29.960Z,1.60
2019-01-13T04:35:01.650Z,1.50
2019-01-13T04:37:33.291Z,1.60
2019-01-13T04:40:06.019Z,1.23
2019-01-13T04:42:37.710Z,1.80
2019-01-13T04:45:09.580Z,0.93
2019-01-13T04:47:41.221Z,1.50
2019-01-13T04:50:13.003Z,1.53
2019-01-13T04:52:44.679Z,2.10
2019-01-13T04:55:16.379Z,1.40
2019-01-13T04:57:48.025Z,1.50
2019-01-13T05:00:20.241Z,1.47
2019-01-13T05:02:52.047Z,1.70
2019-01-13T05:05:23.745Z,1.50
2019-01-13T05:07:55.407Z,1.20
2019-01-13T05:10:27.086Z,1.80
2019-01-13T05:12:58.878Z,1.03
2019-01-13T05:15:30.637Z,1.43
2019-01-13T05:18:02.348Z,1.13
2019-01-13T05:20:34.082Z,1.20
2019-01-13T05:23:05.802Z,1.27
2019-01-13T05:25:37.494Z,1.27
2019-01-13T05:28:09.176Z,1.43
2019-01-13T05:30:40.866Z,1.40
2019-01-13T05:33:12.659Z,1.10
2019-01-13T05:35:44.403Z,1.40
2019-01-13T05:38:16.120Z,1.40
2019-01-13T05:40:47.801Z,0.97
2019-01-13T05:43:19.588Z,1.43
2019-01-13T05:45:51.302Z,1.63
2019-01-13T05:48:23.002Z,1.00
2019-01-13T05:50:54.681Z,1.10
2019-01-13T05:53:26.400Z,1.50
2019-01-13T05:55:58.102Z,0.97
2019-01-13T05:58:29.789Z,1.00
2019-01-13T06:01:01.734Z,1.13
2019-01-13T06:03:33.950Z,0.93
2019-01-13T06:06:05.673Z,1.10
2019-01-13T06:08:37.409Z,0.87
2019-01-13T06:11:09.065Z,0.77
2019-01-13T06:13:40.761Z,1.00
2019-01-13T06:16:12.519Z,1.20
2019-01-13T06:18:44.291Z,0.87
2019-01-13T06:21:15.967Z,1.37
2019-01-13T06:23:48.783Z,1.20
2019-01-13T06:26:20.581Z,0.83
2019-01-13T06:28:52.348Z,1.00
2019-01-13T06:31:24.032Z,0.60
2019-01-13T06:33:55.966Z,0.83
2019-01-13T06:36:27.614Z,1.10
2019-01-13T06:38:59.368Z,1.10
2019-01-13T06:41:31.049Z,0.97
2019-01-13T06:44:02.834Z,1.13
2019-01-13T06:46:34.587Z,1.10
2019-01-13T06:49:06.683Z,0.97
2019-01-13T06:51:38.344Z,1.20
2019-01-13T06:54:10.028Z,1.13
2019-01-13T06:56:41.695Z,1.10
2019-01-13T06:59:13.388Z,1.30
2019-01-13T07:01:45.178Z,1.10
2019-01-13T07:04:16.878Z,1.30
2019-01-13T07:06:48.568Z,1.20
2019-01-13T07:09:20.334Z,1.47
2019-01-13T07:11:52.098Z,1.20
2019-01-13T07:14:23.773Z,1.00
2019-01-13T07:16:55.454Z,1.70
2019-01-13T07:19:27.242Z,1.00
2019-01-13T07:21:58.998Z,1.17
2019-01-13T07:24:30.699Z,1.47
2019-01-13T07:27:02.379Z,1.30
2019-01-13T07:29:34.041Z,1.23
2019-01-13T07:32:10.713Z,1.50
2019-01-13T07:34:39.185Z,1.17
2019-01-13T07:37:10.825Z,1.80
2019-01-13T07:39:42.541Z,1.03
2019-01-13T07:42:14.197Z,1.30
2019-01-13T07:44:45.893Z,1.27
2019-01-13T07:47:17.578Z,1.33
2019-01-13T07:49:49.292Z,1.07
2019-01-13T07:52:21.057Z,1.00
2019-01-13T07:54:52.795Z,1.57
2019-01-13T07:57:24.505Z,0.97
2019-01-13T07:59:56.225Z,1.53
2019-01-13T08:02:28.046Z,1.30
2019-01-13T08:05:00.274Z,1.57
2019-01-13T08:07:32.099Z,1.23
2019-01-13T08:10:04.797Z,1.10
2019-01-13T08:12:36.472Z,1.57
2019-01-13T08:15:09.388Z,1.13
2019-01-13T08:17:41.091Z,1.20
2019-01-13T08:20:17.174Z,1.07
2019-01-13T08:22:48.952Z,1.10
2019-01-13T08:25:20.869Z,1.23
2019-01-13T08:27:52.666Z,1.40
2019-01-13T08:30:25.898Z,1.63
2019-01-13T08:32:57.921Z,1.47
2019-01-13T08:35:29.625Z,1.10
2019-01-13T08:38:02.782Z,1.20
2019-01-13T08:40:34.815Z,1.10
2019-01-13T08:43:06.697Z,1.47
2019-01-13T08:45:38.384Z,0.80
2019-01-13T08:48:10.158Z,1.00
2019-01-13T08:50:41.915Z,1.07
2019-01-13T08:53:13.703Z,1.00
2019-01-13T08:55:45.395Z,1.90
2019-01-13T08:58:17.131Z,1.20
2019-01-13T09:00:49.481Z,1.20
2019-01-13T09:03:21.204Z,1.20
2019-01-13T09:05:52.978Z,2.00
2019-01-13T09:08:24.707Z,1.03
2019-01-13T09:10:56.475Z,1.63
2019-01-13T09:13:28.195Z,2.10
2019-01-13T09:16:00.020Z,1.53
2019-01-13T09:18:31.767Z,1.77
2019-01-13T09:21:03.625Z,1.37
2019-01-13T09:23:35.382Z,1.60
2019-01-13T09:26:07.207Z,1.80
2019-01-13T09:28:38.999Z,1.47
2019-01-13T09:31:10.761Z,1.63
2019-01-13T09:33:42.942Z,1.53
2019-01-13T09:36:14.690Z,1.70
2019-01-13T09:38:46.533Z,1.53
2019-01-13T09:41:18.414Z,1.63
2019-01-13T09:43:50.116Z,1.80
2019-01-13T09:46:21.858Z,1.83
2019-01-13T09:48:53.645Z,2.33
2019-01-13T09:51:25.340Z,2.03
2019-01-13T09:53:57.122Z,1.73
2019-01-13T09:56:28.962Z,1.80
2019-01-13T09:59:00.778Z,1.63
2019-01-13T10:01:33.395Z,2.30
2019-01-13T10:04:05.238Z,2.17
2019-01-13T10:06:37.132Z,2.40
2019-01-13T10:09:09.631Z,1.43
2019-01-13T10:11:41.485Z,2.83
2019-01-13T10:14:13.178Z,1.83
2019-01-13T10:16:44.865Z,2.50
2019-01-13T10:19:16.580Z,2.47
2019-01-13T10:21:48.344Z,1.60
2019-01-13T10:24:20.057Z,2.03
2019-01-13T10:26:51.889Z,2.20
2019-01-13T10:29:23.607Z,1.87
2019-01-13T10:31:55.320Z,1.97
2019-01-13T10:34:27.115Z,2.47
2019-01-13T10:36:58.973Z,2.10
2019-01-13T10:39:30.801Z,1.77
2019-01-13T10:42:02.595Z,2.03
2019-01-13T10:44:34.291Z,1.87
2019-01-13T10:47:06.002Z,2.47
2019-01-13T10:49:37.773Z,2.40
2019-01-13T10:52:09.577Z,2.50
2019-01-13T10:54:41.357Z,2.00
2019-01-13T10:57:13.062Z,1.90
2019-01-13T10:59:44.742Z,2.90
2019-01-13T11:02:16.594Z,2.27
2019-01-13T11:04:48.271Z,1.80
2019-01-13T11:07:20.044Z,2.60
2019-01-13T11:09:51.834Z,2.27
2019-01-13T11:12:23.582Z,2.43
2019-01-13T11:14:55.368Z,2.23
2019-01-13T11:17:27.236Z,2.27
2019-01-13T11:19:59.137Z,2.20
2019-01-13T11:22:31.060Z,2.17
2019-01-13T11:25:02.862Z,3.40
2019-01-13T11:27:34.753Z,2.53
2019-01-13T11:30:08.239Z,2.30
2019-01-13T11:32:40.018Z,2.57
2019-01-13T11:35:12.481Z,2.30
2019-01-13T11:37:44.791Z,2.47
2019-01-13T11:40:19.460Z,1.87
2019-01-13T11:42:51.259Z,2.60
2019-01-13T11:45:23.135Z,2.20
2019-01-13T11:47:54.934Z,2.40
2019-01-13T11:50:27.499Z,2.70
2019-01-13T11:52:59.303Z,2.40
2019-01-13T11:55:31.095Z,2.33
2019-01-13T11:58:02.792Z,2.67
2019-01-13T12:00:48.749Z,2.70
2019-01-13T12:03:20.495Z,2.73
2019-01-13T12:05:52.236Z,2.80
2019-01-13T12:08:24.033Z,2.83
2019-01-13T12:10:55.755Z,2.40
2019-01-13T12:13:27.532Z,3.07
2019-01-13T12:15:59.305Z,2.27
2019-01-13T12:18:30.998Z,2.47
2019-01-13T12:21:02.729Z,2.90
2019-01-13T12:23:34.805Z,2.40
2019-01-13T12:26:06.532Z,2.63
2019-01-13T12:28:38.266Z,2.30
2019-01-13T12:31:10.040Z,2.10
2019-01-13T12:33:41.789Z,2.10
2019-01-13T12:36:13.528Z,2.43
2019-01-13T12:38:45.214Z,2.40
2019-01-13T12:41:16.941Z,2.13
2019-01-13T12:43:48.740Z,2.27
2019-01-13T12:46:20.582Z,2.20
2019-01-13T12:48:52.532Z,1.90
2019-01-13T12:51:24.268Z,2.13
2019-01-13T12:53:59.851Z,2.40
2019-01-13T12:56:31.693Z,2.03
2019-01-13T12:59:03.563Z,2.57
2019-01-13T13:01:35.358Z,2.00
2019-01-13T13:04:07.163Z,2.00
2019-01-13T13:06:38.914Z,2.27
2019-01-13T13:09:10.641Z,3.00
2019-01-13T13:11:42.475Z,2.30
2019-01-13T13:14:14.165Z,2.23
2019-01-13T13:16:45.864Z,2.50
2019-01-13T13:19:17.664Z,2.27
2019-01-13T13:21:49.454Z,1.83
2019-01-13T13:24:21.165Z,2.93
2019-01-13T13:26:53.068Z,2.27
2019-01-13T13:29:24.765Z,2.13
2019-01-13T13:31:56.444Z,2.30
2019-01-13T13:34:28.204Z,1.80
2019-01-13T13:36:59.871Z,1.90
2019-01-13T13:39:31.605Z,1.70
2019-01-13T13:42:03.366Z,1.80
2019-01-13T13:44:35.072Z,1.83
2019-01-13T13:47:06.784Z,2.27
2019-01-13T13:49:38.589Z,1.97
2019-01-13T13:52:10.281Z,2.27
2019-01-13T13:54:41.970Z,1.93
2019-01-13T13:57:13.753Z,1.67
2019-01-13T13:59:45.683Z,1.73
2019-01-13T14:02:17.370Z,1.63
2019-01-13T14:04:49.142Z,2.03
2019-01-13T14:07:20.987Z,1.70
2019-01-13T14:09:52.811Z,2.73
2019-01-13T14:12:24.653Z,2.00
2019-01-13T14:14:56.351Z,2.60
2019-01-13T14:17:28.140Z,2.40
2019-01-13T14:19:59.856Z,2.33
2019-01-13T14:22:31.680Z,2.40
2019-01-13T14:25:03.519Z,2.10
2019-01-13T14:27:35.358Z,2.23
2019-01-13T14:30:14.679Z,2.03
2019-01-13T14:32:46.788Z,1.80
2019-01-13T14:35:18.587Z,1.67
2019-01-13T14:37:50.637Z,2.13
2019-01-13T14:40:23.645Z,2.60
2019-01-13T14:42:55.484Z,2.07
2019-01-13T14:45:28.041Z,2.30
2019-01-13T14:47:59.733Z,2.23
2019-01-13T14:50:33.448Z,2.23
2019-01-13T14:53:07.257Z,2.20
2019-01-13T14:55:39.077Z,2.17
2019-01-13T14:58:10.865Z,1.80
2019-01-13T15:00:42.592Z,1.90
2019-01-13T15:03:15.739Z,1.63
2019-01-13T15:05:47.653Z,1.60
2019-01-13T15:08:19.411Z,1.63
2019-01-13T15:10:51.232Z,1.53
2019-01-13T15:13:23.957Z,2.77
2019-01-13T15:15:56.922Z,2.10
2019-01-13T15:18:28.673Z,2.50
2019-01-13T15:21:00.349Z,1.70
2019-01-13T15:23:32.721Z,1.67
2019-01-13T15:26:04.519Z,1.77
2019-01-13T15:28:36.275Z,1.80
2019-01-13T15:31:08.161Z,1.80
2019-01-13T15:33:39.937Z,1.80
2019-01-13T15:36:11.615Z,1.67
2019-01-13T15:38:43.316Z,1.60
2019-01-13T15:41:14.993Z,1.93
2019-01-13T15:43:46.841Z,1.90
2019-01-13T15:46:18.543Z,2.00
2019-01-13T15:48:50.234Z,2.00
2019-01-13T15:51:21.971Z,3.47
2019-01-13T15:53:53.689Z,2.43
2019-01-13T15:56:25.422Z,1.93
2019-01-13T15:58:57.145Z,1.83
2019-01-13T16:01:28.882Z,1.57
2019-01-13T16:04:00.594Z,2.10
2019-01-13T16:06:32.352Z,1.73
2019-01-13T16:09:07.496Z,1.87
2019-01-13T16:11:39.392Z,2.10
2019-01-13T16:14:11.116Z,1.90
2019-01-13T16:16:42.874Z,1.77
2019-01-13T16:19:14.614Z,1.50
2019-01-13T16:21:46.342Z,1.83
2019-01-13T16:24:18.092Z,2.67
2019-01-13T16:26:49.886Z,1.63
2019-01-13T16:29:21.590Z,1.60
2019-01-13T16:31:53.313Z,1.93
2019-01-13T16:34:25.007Z,2.50
2019-01-13T16:36:56.806Z,2.10
2019-01-13T16:39:28.468Z,1.80
2019-01-13T16:42:00.282Z,1.83
2019-01-13T16:44:31.991Z,2.30
2019-01-13T16:47:03.857Z,2.20
2019-01-13T16:49:35.591Z,2.07
2019-01-13T16:52:07.310Z,1.90
2019-01-13T16:54:39.033Z,2.77
2019-01-13T16:57:10.732Z,1.90
2019-01-13T16:59:42.393Z,2.23
2019-01-13T17:02:14.091Z,2.17
2019-01-13T17:04:45.806Z,2.13
2019-01-13T17:07:19.065Z,1.87
2019-01-13T17:09:50.853Z,2.43
2019-01-13T17:12:22.609Z,2.03
2019-01-13T17:14:54.369Z,1.80
2019-01-13T17:17:26.058Z,2.13
2019-01-13T17:19:58.213Z,2.90
2019-01-13T17:22:29.932Z,1.93
2019-01-13T17:25:01.647Z,2.00
2019-01-13T17:27:33.374Z,1.70
2019-01-13T17:30:08.176Z,2.10
2019-01-13T17:32:39.891Z,2.27
2019-01-13T17:35:11.615Z,1.90
2019-01-13T17:37:43.312Z,2.13
2019-01-13T17:40:17.036Z,1.40
2019-01-13T17:42:48.769Z,1.80
2019-01-13T17:45:22.623Z,2.13
2019-01-13T17:47:54.388Z,3.03
2019-01-13T17:50:26.368Z,2.50
2019-01-13T17:52:58.059Z,2.00
2019-01-13T17:55:30.928Z,2.47
2019-01-13T17:58:02.621Z,2.70
2019-01-13T18:01:07.277Z,2.10
2019-01-13T18:03:42.431Z,1.80
2019-01-13T18:06:14.465Z,1.50
2019-01-13T18:08:46.195Z,1.67
2019-01-13T18:11:17.964Z,1.50
2019-01-13T18:13:49.734Z,1.87
2019-01-13T18:16:21.452Z,1.60
2019-01-13T18:18:53.453Z,1.67
2019-01-13T18:21:25.254Z,1.83
2019-01-13T18:23:57.042Z,1.93
2019-01-13T18:26:28.767Z,1.70
2019-01-13T18:29:00.539Z,1.63
2019-01-13T18:31:32.290Z,1.77
2019-01-13T18:34:03.977Z,2.07
2019-01-13T18:36:35.762Z,1.57
2019-01-13T18:39:08.820Z,1.93
2019-01-13T18:41:40.520Z,1.30
2019-01-13T18:44:12.192Z,1.40
2019-01-13T18:46:43.892Z,1.50
2019-01-13T18:49:15.577Z,1.77
2019-01-13T18:51:47.317Z,1.90
2019-01-13T18:54:19.095Z,2.30
2019-01-13T18:56:50.880Z,2.00
2019-01-13T18:59:22.583Z,1.87
2019-01-13T19:01:54.280Z,1.40
2019-01-13T19:04:26.066Z,1.50
2019-01-13T19:06:57.798Z,1.60
2019-01-13T19:09:29.581Z,1.93
2019-01-13T19:12:01.303Z,2.60
2019-01-13T19:14:41.917Z,1.70
2019-01-13T19:17:15.344Z,3.40
2019-01-13T19:20:25.401Z,1.70
2019-01-13T19:23:06.741Z,1.80
2019-01-13T19:25:38.450Z,1.70
2019-01-13T19:28:10.234Z,1.97
2019-01-13T19:30:41.956Z,1.80
2019-01-13T19:33:13.787Z,1.43
2019-01-13T19:35:45.596Z,1.17
2019-01-13T19:38:17.367Z,1.23
2019-01-13T19:40:49.127Z,2.10
2019-01-13T19:43:20.824Z,1.30
2019-01-13T19:45:52.501Z,1.60
2019-01-13T19:48:24.198Z,1.33
2019-01-13T19:50:55.878Z,1.00
2019-01-13T19:53:27.548Z,1.40
2019-01-13T19:55:59.249Z,1.07
2019-01-13T19:58:31.031Z,0.83
2019-01-13T20:01:02.732Z,1.10
2019-01-13T20:03:34.591Z,0.80
2019-01-13T20:06:06.400Z,0.67
2019-01-13T20:08:38.124Z,0.90
2019-01-13T20:11:09.925Z,0.53
2019-01-13T20:13:41.713Z,1.10
2019-01-13T20:16:13.502Z,0.97
2019-01-13T20:18:45.330Z,1.37
2019-01-13T20:21:17.125Z,1.07
2019-01-13T20:23:48.909Z,0.70
2019-01-13T20:26:20.692Z,0.90
2019-01-13T20:28:52.532Z,1.13
2019-01-13T20:31:24.290Z,1.23
2019-01-13T20:33:56.108Z,1.73
2019-01-13T20:36:27.805Z,1.20
2019-01-13T20:38:59.586Z,1.17
2019-01-13T20:41:31.300Z,1.43
2019-01-13T20:44:03.016Z,1.53
2019-01-13T20:46:34.737Z,1.33
2019-01-13T20:49:06.498Z,1.47
2019-01-13T20:51:38.235Z,1.30
2019-01-13T20:54:10.015Z,1.20
2019-01-13T20:56:41.810Z,1.03
2019-01-13T20:59:13.599Z,0.90
2019-01-13T21:01:45.315Z,1.13
2019-01-13T21:04:17.127Z,1.00
2019-01-13T21:06:48.873Z,1.37
2019-01-13T21:09:20.641Z,1.40
2019-01-13T21:11:52.318Z,0.90
2019-01-13T21:14:23.987Z,1.03
2019-01-13T21:16:55.690Z,1.03
2019-01-13T21:19:27.444Z,1.47
2019-01-13T21:21:59.233Z,1.00
2019-01-13T21:24:30.919Z,1.20
2019-01-13T21:27:02.741Z,2.47
2019-01-13T21:29:34.527Z,1.40
2019-01-13T21:32:06.353Z,1.33
2019-01-13T21:34:38.064Z,1.33
2019-01-13T21:37:09.848Z,1.40
2019-01-13T21:39:41.691Z,1.20
2019-01-13T21:42:13.440Z,1.13
2019-01-13T21:44:49.101Z,1.10
2019-01-13T21:47:22.710Z,1.30
2019-01-13T21:49:56.814Z,1.63
2019-01-13T21:52:28.607Z,1.63
2019-01-13T21:55:00.311Z,1.30
2019-01-13T21:57:32.041Z,1.20
2019-01-13T22:00:05.902Z,1.40
2019-01-13T22:02:37.580Z,1.13
2019-01-13T22:05:09.910Z,1.20
2019-01-13T22:07:41.621Z,1.70
2019-01-13T22:10:18.528Z,1.37
2019-01-13T22:12:50.351Z,1.37
2019-01-13T22:15:22.380Z,1.17
2019-01-13T22:17:54.190Z,1.70
2019-01-13T22:20:26.015Z,1.07
2019-01-13T22:22:57.726Z,1.10
2019-01-13T22:25:29.493Z,1.43
2019-01-13T22:28:01.288Z,1.43
2019-01-13T22:30:33.044Z,2.10
2019-01-13T22:33:04.866Z,1.50
2019-01-13T22:35:36.583Z,1.53
2019-01-13T22:38:08.373Z,1.83
2019-01-13T22:40:40.186Z,4.83
2019-01-13T22:43:11.874Z,1.50
2019-01-13T22:45:44.854Z,2.13
2019-01-13T22:48:18.024Z,1.47
2019-01-13T22:50:49.803Z,2.30
2019-01-13T22:53:21.550Z,2.37
2019-01-13T22:55:53.240Z,2.00
2019-01-13T22:58:24.900Z,1.60
2019-01-13T23:01:18.859Z,1.93
2019-01-13T23:03:50.619Z,1.67
2019-01-13T23:06:22.323Z,2.03
2019-01-13T23:08:54.035Z,1.67
2019-01-13T23:11:25.838Z,1.73
2019-01-13T23:13:57.526Z,1.60
2019-01-13T23:16:29.257Z,2.20
2019-01-13T23:19:01.723Z,2.10
2019-01-13T23:21:33.540Z,1.40
2019-01-13T23:24:05.800Z,1.80
2019-01-13T23:26:37.599Z,2.10
2019-01-13T23:29:09.312Z,2.10
2019-01-13T23:31:41.056Z,1.43
2019-01-13T23:34:12.705Z,2.10
2019-01-13T23:36:44.398Z,1.60
2019-01-13T23:39:16.182Z,2.17
2019-01-13T23:41:47.887Z,3.13
2019-01-13T23:44:19.726Z,1.50
2019-01-13T23:46:51.434Z,2.00
2019-01-13T23:49:23.324Z,1.40
2019-01-13T23:51:55.106Z,1.90
2019-01-13T23:54:26.819Z,2.53
2019-01-13T23:56:58.508Z,1.70
2019-01-13T23:59:31.251Z,2.30
